Time;durP1;ratioP1;P1;durP2;ratioP2;P2;SDS_P1;SDS_P2;PMS_P1;PMS_P2;Temp;Humidity;BMP_temperature;BMP_pressure;BME280_temperature;BME280_humidity;BME280_pressure;Samples;Min_cycle;Max_cycle;Signal;HPM_P1;HPM_P2
2022/01/15 00:00:30;;;;;;;8.48;4.75;;;6.80;99.90;;;;;;5117630;28;20036;-67
2022/01/15 00:02:56;;;;;;;6.95;4.60;;;6.70;99.90;;;;;;5118954;28;20445;-67
2022/01/15 00:05:22;;;;;;;8.40;5.43;;;6.80;99.90;;;;;;5116654;28;20042;-67
2022/01/15 00:07:48;;;;;;;10.02;5.60;;;6.80;99.90;;;;;;5116263;28;20059;-67
2022/01/15 00:10:20;;;;;;;11.73;6.00;;;6.70;99.90;;;;;;5113227;28;20055;-67
2022/01/15 00:12:46;;;;;;;9.15;5.57;;;6.80;99.90;;;;;;5114017;28;20044;-67
2022/01/15 00:15:20;;;;;;;11.00;5.47;;;6.80;99.90;;;;;;5125250;28;20063;-67
2022/01/15 00:17:50;;;;;;;8.70;5.50;;;6.60;99.90;;;;;;5119725;28;20071;-67
2022/01/15 00:20:23;;;;;;;10.32;5.90;;;6.80;99.90;;;;;;5120525;28;20044;-67
2022/01/15 00:22:50;;;;;;;5.57;2.63;;;6.70;99.90;;;;;;5121345;27;20416;-67
2022/01/15 00:25:18;;;;;;;4.00;2.88;;;6.80;99.90;;;;;;5122532;27;20039;-67
2022/01/15 00:27:45;;;;;;;4.65;3.00;;;6.60;99.90;;;;;;5151479;27;20126;-67
2022/01/15 00:30:13;;;;;;;5.47;3.15;;;6.70;99.90;;;;;;5119597;28;20052;-67
2022/01/15 00:32:38;;;;;;;5.15;3.63;;;6.70;99.90;;;;;;5119296;28;20487;-67
2022/01/15 00:35:05;;;;;;;8.63;4.22;;;6.70;99.90;;;;;;5125717;28;20075;-67
2022/01/15 00:37:32;;;;;;;5.35;3.38;;;6.70;99.90;;;;;;5118568;28;20059;-67
2022/01/15 00:39:59;;;;;;;7.63;4.38;;;6.70;99.90;;;;;;5158710;27;20062;-67
2022/01/15 00:42:27;;;;;;;2.33;1.80;;;6.60;99.90;;;;;;5123880;28;20065;-67
2022/01/15 00:44:54;;;;;;;2.97;1.90;;;6.60;99.90;;;;;;5125521;28;20047;-67
2022/01/15 00:47:21;;;;;;;2.10;1.30;;;6.50;99.90;;;;;;5114500;28;20039;-67
2022/01/15 00:49:47;;;;;;;2.60;1.55;;;6.70;99.90;;;;;;5110760;28;20040;-67
2022/01/15 00:52:13;;;;;;;3.13;2.00;;;6.70;99.90;;;;;;5119301;28;20465;-67
2022/01/15 00:54:39;;;;;;;3.58;2.40;;;6.80;99.90;;;;;;5118505;28;20040;-67
2022/01/15 00:57:04;;;;;;;4.97;2.60;;;6.80;99.90;;;;;;5114276;28;20039;-67
2022/01/15 00:59:30;;;;;;;4.15;2.95;;;6.70;99.90;;;;;;5109716;28;20075;-67
2022/01/15 01:01:56;;;;;;;3.58;2.63;;;6.80;99.90;;;;;;5119444;28;20099;-67
2022/01/15 01:04:22;;;;;;;4.63;2.90;;;6.80;99.90;;;;;;5120406;28;20500;-67
2022/01/15 01:06:47;;;;;;;6.55;4.00;;;6.80;99.90;;;;;;5110099;28;20105;-67
2022/01/15 01:09:13;;;;;;;5.68;3.60;;;6.70;99.90;;;;;;5124830;28;20563;-67
2022/01/15 01:11:51;;;;;;;4.80;2.85;;;6.70;99.90;;;;;;5122667;28;20051;-67
2022/01/15 01:20:09;;;;;;;4.97;2.83;;;6.70;99.90;;;;;;5115638;28;20067;-67
2022/01/15 01:25:21;;;;;;;3.42;2.60;;;6.60;99.90;;;;;;5119397;28;20047;-67
2022/01/15 01:27:51;;;;;;;4.65;3.08;;;6.70;99.90;;;;;;5122001;28;20051;-67
2022/01/15 01:30:28;;;;;;;4.22;2.55;;;6.80;99.90;;;;;;5158542;27;20043;-67
2022/01/15 01:35:37;;;;;;;5.22;2.80;;;6.80;99.90;;;;;;5126460;28;20044;-67
2022/01/15 01:38:30;;;;;;;3.55;2.20;;;6.80;99.90;;;;;;5109946;28;20048;-67
2022/01/15 01:40:58;;;;;;;4.05;2.58;;;6.60;99.90;;;;;;5118718;28;20052;-67
2022/01/15 01:46:39;;;;;;;4.53;2.33;;;6.60;99.90;;;;;;5117409;28;20059;-67
2022/01/15 01:48:39;;;;;;;3.60;2.20;;;6.60;99.90;;;;;;5115078;28;20044;-67
2022/01/15 01:51:06;;;;;;;3.80;2.50;;;6.60;99.90;;;;;;5122177;27;20077;-67
2022/01/15 01:53:34;;;;;;;4.55;2.70;;;6.70;99.90;;;;;;5150121;27;20036;-67
2022/01/15 01:55:59;;;;;;;4.78;2.40;;;6.60;99.90;;;;;;5120353;27;20048;-67
2022/01/15 01:58:25;;;;;;;4.15;2.67;;;6.70;99.90;;;;;;5117510;28;20035;-67
2022/01/15 02:00:51;;;;;;;4.38;2.80;;;6.60;99.90;;;;;;5124335;28;20480;-67
2022/01/15 02:03:16;;;;;;;4.32;2.60;;;6.70;99.90;;;;;;5118439;28;20039;-67
2022/01/15 02:05:42;;;;;;;4.15;2.42;;;6.70;99.90;;;;;;5156020;27;20403;-67
2022/01/15 02:08:08;;;;;;;3.85;2.65;;;6.70;99.90;;;;;;5120428;28;20040;-67
2022/01/15 02:10:34;;;;;;;4.25;2.65;;;6.70;99.90;;;;;;5121977;28;20044;-67
2022/01/15 02:13:01;;;;;;;3.78;2.30;;;6.60;99.90;;;;;;5128948;28;20570;-67
2022/01/15 02:15:27;;;;;;;3.85;2.20;;;6.60;99.90;;;;;;5125212;28;20077;-67
2022/01/15 02:17:54;;;;;;;3.70;2.72;;;6.60;99.90;;;;;;5121791;28;20047;-67
2022/01/15 02:25:56;;;;;;;6.00;2.63;;;6.60;99.90;;;;;;5117420;28;20073;-67
2022/01/15 02:28:25;;;;;;;4.93;3.08;;;6.70;99.90;;;;;;5125565;28;20487;-67
2022/01/15 02:30:59;;;;;;;4.18;2.92;;;6.70;99.90;;;;;;5120528;28;20164;-67
2022/01/15 02:33:25;;;;;;;3.83;2.50;;;6.50;99.90;;;;;;5115935;28;20062;-67
2022/01/15 02:35:52;;;;;;;6.28;3.35;;;6.50;99.90;;;;;;5116365;28;20419;-67
2022/01/15 02:38:18;;;;;;;5.15;3.08;;;6.60;99.90;;;;;;5111402;28;20052;-67
2022/01/15 02:40:44;;;;;;;4.25;3.08;;;6.60;99.90;;;;;;5120236;28;20051;-67
2022/01/15 02:43:14;;;;;;;3.72;2.70;;;6.60;99.90;;;;;;5113158;28;20203;-67
2022/01/15 02:45:46;;;;;;;4.40;2.65;;;6.50;99.90;;;;;;5119108;28;20483;-67
2022/01/15 02:48:11;;;;;;;5.00;2.83;;;6.50;99.90;;;;;;5110028;28;20082;-67
2022/01/15 02:50:37;;;;;;;4.32;2.72;;;6.60;99.90;;;;;;5116619;28;20043;-67
2022/01/15 02:53:04;;;;;;;4.60;2.95;;;6.50;99.90;;;;;;5113458;28;20036;-67
2022/01/15 02:55:30;;;;;;;5.53;3.30;;;6.60;99.90;;;;;;5116401;28;20035;-67
2022/01/15 02:57:56;;;;;;;5.10;3.30;;;6.50;99.90;;;;;;5111622;28;20059;-67
2022/01/15 03:00:23;;;;;;;5.00;3.67;;;6.60;99.90;;;;;;5123356;28;20036;-67
2022/01/15 03:02:49;;;;;;;5.43;3.72;;;6.60;99.90;;;;;;5110398;28;20051;-67
2022/01/15 03:05:15;;;;;;;6.00;4.03;;;6.50;99.90;;;;;;5117287;28;20049;-67
2022/01/15 03:07:40;;;;;;;4.80;3.33;;;6.60;99.90;;;;;;5117811;28;20047;-67
2022/01/15 03:10:08;;;;;;;6.80;4.00;;;6.70;99.90;;;;;;5115678;28;20068;-67
2022/01/15 03:12:35;;;;;;;6.45;3.92;;;6.60;99.90;;;;;;5113649;28;20048;-67
2022/01/15 03:15:03;;;;;;;4.85;3.22;;;6.70;99.90;;;;;;5115590;28;20478;-67
2022/01/15 03:17:28;;;;;;;6.35;2.60;;;6.70;99.90;;;;;;5115729;28;20091;-67
2022/01/15 03:19:54;;;;;;;7.60;3.17;;;6.60;99.90;;;;;;5114532;28;20058;-67
2022/01/15 03:22:21;;;;;;;5.20;2.95;;;6.70;99.90;;;;;;5124322;28;20039;-67
2022/01/15 03:24:47;;;;;;;5.22;2.70;;;6.70;99.90;;;;;;5119880;28;20403;-67
2022/01/15 03:27:13;;;;;;;3.97;2.42;;;6.60;99.90;;;;;;5125745;28;20040;-67
2022/01/15 03:29:38;;;;;;;5.88;2.67;;;6.60;99.90;;;;;;5119039;28;20055;-67
2022/01/15 03:32:05;;;;;;;3.90;2.65;;;6.50;99.90;;;;;;5111422;28;20091;-67
2022/01/15 03:34:31;;;;;;;6.38;2.90;;;6.50;99.90;;;;;;5111712;28;20048;-67
2022/01/15 03:36:57;;;;;;;5.30;3.35;;;6.50;99.90;;;;;;5119675;28;20435;-67
2022/01/15 03:39:23;;;;;;;5.30;2.97;;;6.40;99.90;;;;;;5081814;28;1087400;-67
2022/01/15 03:41:48;;;;;;;4.03;2.72;;;6.40;99.90;;;;;;5118723;28;20114;-67
2022/01/15 03:44:14;;;;;;;4.63;3.13;;;6.40;99.90;;;;;;5119746;28;20039;-67
2022/01/15 03:46:40;;;;;;;5.50;3.03;;;6.30;99.90;;;;;;5126110;28;20051;-67
2022/01/15 03:49:06;;;;;;;4.38;2.58;;;6.30;99.90;;;;;;5127277;28;20123;-67
2022/01/15 03:51:31;;;;;;;4.43;2.50;;;6.40;99.90;;;;;;5125876;28;20044;-67
2022/01/15 03:53:57;;;;;;;5.13;2.90;;;6.30;99.90;;;;;;5127385;28;20039;-67
2022/01/15 03:56:23;;;;;;;4.35;2.78;;;6.20;99.90;;;;;;5127322;28;20055;-67
2022/01/15 03:58:49;;;;;;;4.72;2.83;;;6.40;99.90;;;;;;5127047;28;20085;-67
2022/01/15 04:01:14;;;;;;;5.75;2.58;;;6.40;99.90;;;;;;5126720;28;20044;-67
2022/01/15 04:03:40;;;;;;;3.95;2.50;;;6.40;99.90;;;;;;5127019;28;20101;-67
2022/01/15 04:06:06;;;;;;;3.42;2.35;;;6.40;99.90;;;;;;5126659;28;20451;-67
2022/01/15 04:08:32;;;;;;;3.75;2.65;;;6.40;99.90;;;;;;5125453;28;20043;-67
2022/01/15 04:10:57;;;;;;;3.58;2.40;;;6.50;99.90;;;;;;5126225;28;20051;-67
2022/01/15 04:13:23;;;;;;;4.68;2.40;;;6.40;99.90;;;;;;5126657;28;20126;-67
2022/01/15 04:15:52;;;;;;;4.88;2.50;;;6.40;99.90;;;;;;5125237;28;20078;-67
2022/01/15 04:18:20;;;;;;;5.45;2.92;;;6.40;99.90;;;;;;5125117;28;20043;-67
2022/01/15 04:20:46;;;;;;;4.72;2.50;;;6.40;99.90;;;;;;5126442;28;20073;-67
2022/01/15 04:23:11;;;;;;;4.43;2.75;;;6.40;99.90;;;;;;5124994;28;20052;-67
2022/01/15 04:25:37;;;;;;;4.30;2.80;;;6.40;99.90;;;;;;5126362;28;20048;-67
2022/01/15 04:28:08;;;;;;;5.32;3.03;;;6.60;99.90;;;;;;5126373;28;20042;-67
2022/01/15 04:30:34;;;;;;;4.03;3.00;;;6.50;99.90;;;;;;5126152;28;20050;-67
2022/01/15 04:32:59;;;;;;;4.57;3.10;;;6.30;99.90;;;;;;5126061;28;20035;-67
2022/01/15 04:35:25;;;;;;;4.85;2.95;;;6.40;99.90;;;;;;5126205;27;20614;-67
2022/01/15 04:37:56;;;;;;;5.60;3.03;;;6.40;99.90;;;;;;5125792;28;20039;-67
2022/01/15 04:40:22;;;;;;;5.30;3.40;;;6.30;99.90;;;;;;5126112;28;20063;-67
2022/01/15 04:42:47;;;;;;;4.20;2.80;;;6.40;99.90;;;;;;5124278;28;20164;-67
2022/01/15 04:45:13;;;;;;;4.45;2.97;;;6.40;99.90;;;;;;5125957;28;20046;-67
2022/01/15 04:47:40;;;;;;;4.63;2.72;;;6.40;99.90;;;;;;5124760;28;20086;-67
2022/01/15 04:50:10;;;;;;;4.50;3.00;;;6.30;99.90;;;;;;5125746;28;20130;-67
2022/01/15 04:52:38;;;;;;;4.38;2.95;;;6.40;99.90;;;;;;5125814;27;20046;-67
2022/01/15 04:55:05;;;;;;;3.83;2.60;;;6.40;99.90;;;;;;5126272;28;20073;-67
2022/01/15 04:57:31;;;;;;;4.93;3.22;;;6.40;99.90;;;;;;5126045;28;20043;-67
2022/01/15 04:59:56;;;;;;;4.20;2.90;;;6.30;99.90;;;;;;5126253;28;20064;-67
2022/01/15 05:02:22;;;;;;;4.45;2.80;;;6.40;99.90;;;;;;5125761;28;20051;-67
2022/01/15 05:04:48;;;;;;;4.97;3.40;;;6.30;99.90;;;;;;5124735;28;20035;-67
2022/01/15 05:07:13;;;;;;;5.63;3.63;;;6.40;99.90;;;;;;5125731;28;20073;-67
2022/01/15 05:09:39;;;;;;;5.97;3.42;;;6.40;99.90;;;;;;5124304;28;20432;-67
2022/01/15 05:12:10;;;;;;;5.05;3.13;;;6.50;99.90;;;;;;5124100;28;20043;-67
2022/01/15 05:14:37;;;;;;;4.50;3.13;;;6.60;99.90;;;;;;5125960;28;20047;-67
2022/01/15 05:17:03;;;;;;;6.05;3.72;;;6.60;99.90;;;;;;5117260;28;20105;-67
2022/01/15 05:19:29;;;;;;;5.53;3.22;;;6.40;99.90;;;;;;5121832;28;20039;-67
2022/01/15 05:21:56;;;;;;;4.93;3.53;;;6.60;99.90;;;;;;5107651;28;20044;-67
2022/01/15 05:24:25;;;;;;;6.30;4.47;;;6.40;99.90;;;;;;5120274;28;20048;-67
2022/01/15 05:26:52;;;;;;;7.15;4.43;;;6.40;99.90;;;;;;5124917;28;20055;-67
2022/01/15 05:29:18;;;;;;;6.47;4.20;;;6.50;99.90;;;;;;5117127;28;20040;-67
2022/01/15 05:31:44;;;;;;;5.97;3.25;;;6.40;99.90;;;;;;5123271;28;20523;-65
2022/01/15 05:34:10;;;;;;;5.53;3.85;;;6.50;99.90;;;;;;5121764;28;20047;-65
2022/01/15 05:36:36;;;;;;;5.75;3.72;;;6.40;99.90;;;;;;5112175;28;20048;-65
2022/01/15 05:39:02;;;;;;;5.95;3.80;;;6.40;99.90;;;;;;5116577;28;20054;-65
2022/01/15 05:41:28;;;;;;;5.38;3.50;;;6.40;99.90;;;;;;5117566;28;20043;-65
2022/01/15 05:44:00;;;;;;;5.90;3.65;;;6.40;99.90;;;;;;5146616;27;20058;-65
2022/01/15 05:46:26;;;;;;;4.75;3.30;;;6.40;99.90;;;;;;5118100;28;20035;-65
2022/01/15 05:48:51;;;;;;;5.95;3.35;;;6.50;99.90;;;;;;5124328;28;20045;-65
2022/01/15 05:51:17;;;;;;;7.28;3.83;;;6.50;99.90;;;;;;5124889;28;20052;-65
2022/01/15 05:53:43;;;;;;;6.80;4.07;;;6.40;99.90;;;;;;5122699;28;20044;-65
2022/01/15 05:56:08;;;;;;;7.38;4.18;;;6.40;99.90;;;;;;5118157;28;20083;-65
2022/01/15 05:58:34;;;;;;;7.88;4.47;;;6.50;99.90;;;;;;5120406;28;20051;-65
2022/01/15 06:00:59;;;;;;;6.82;4.38;;;6.50;99.90;;;;;;5114282;28;20044;-65
2022/01/15 06:03:25;;;;;;;6.30;3.50;;;6.60;99.90;;;;;;5113662;28;20044;-65
2022/01/15 06:05:51;;;;;;;6.18;4.05;;;6.60;99.90;;;;;;5118647;28;20395;-67
2022/01/15 06:08:17;;;;;;;6.68;4.05;;;6.60;99.90;;;;;;5123762;28;20032;-65
2022/01/15 06:10:42;;;;;;;5.82;3.65;;;6.70;99.90;;;;;;5110256;28;20048;-64
2022/01/15 06:13:08;;;;;;;6.53;4.40;;;6.60;99.90;;;;;;5121768;28;20035;-66
2022/01/15 06:15:34;;;;;;;11.73;6.50;;;6.60;99.90;;;;;;5109547;28;20103;-65
2022/01/15 06:18:00;;;;;;;9.18;5.80;;;6.40;99.90;;;;;;5127957;28;20035;-65
2022/01/15 06:20:26;;;;;;;7.50;4.72;;;6.50;99.90;;;;;;5114213;28;20503;-66
2022/01/15 06:22:51;;;;;;;8.48;5.18;;;6.50;99.90;;;;;;5125524;28;20035;-66
2022/01/15 06:25:17;;;;;;;8.90;6.05;;;6.60;99.90;;;;;;5125390;28;20063;-66
2022/01/15 06:27:43;;;;;;;8.13;5.70;;;6.60;99.90;;;;;;5127733;28;20035;-66
2022/01/15 06:30:08;;;;;;;6.43;4.53;;;6.50;99.90;;;;;;5124283;28;20044;-66
2022/01/15 06:32:36;;;;;;;8.10;4.13;;;6.60;99.90;;;;;;5124290;28;20044;-66
2022/01/15 06:35:07;;;;;;;6.60;4.18;;;6.60;99.90;;;;;;5127926;28;20051;-66
2022/01/15 06:37:32;;;;;;;6.35;3.92;;;6.60;99.90;;;;;;5116356;28;20040;-66
2022/01/15 06:39:58;;;;;;;7.72;4.28;;;6.60;99.90;;;;;;5160166;27;20108;-66
2022/01/15 06:42:24;;;;;;;7.45;4.10;;;6.70;99.90;;;;;;5120102;28;20044;-66
2022/01/15 06:44:49;;;;;;;7.72;4.65;;;6.60;99.90;;;;;;5112908;28;20040;-66
2022/01/15 06:47:15;;;;;;;6.63;4.30;;;6.60;99.90;;;;;;5127769;28;20040;-66
2022/01/15 06:49:41;;;;;;;6.93;3.85;;;6.50;99.90;;;;;;5122233;28;20044;-66
2022/01/15 06:52:07;;;;;;;7.05;3.92;;;6.60;99.90;;;;;;5154938;27;20075;-66
2022/01/15 06:54:32;;;;;;;6.53;3.55;;;6.50;99.90;;;;;;5120809;28;20042;-66
2022/01/15 06:56:58;;;;;;;6.18;4.03;;;6.40;99.90;;;;;;5120982;28;20517;-66
2022/01/15 06:59:24;;;;;;;5.65;3.22;;;6.50;99.90;;;;;;5127387;28;20054;-66
2022/01/15 07:01:50;;;;;;;6.15;3.67;;;6.70;99.90;;;;;;5127233;28;20172;-66
2022/01/15 07:04:15;;;;;;;7.32;3.80;;;6.60;99.90;;;;;;5117280;28;20047;-66
2022/01/15 07:06:41;;;;;;;6.90;3.72;;;6.50;99.90;;;;;;5122759;28;20044;-66
2022/01/15 07:09:07;;;;;;;6.60;3.00;;;6.50;99.90;;;;;;5115922;27;20407;-66
2022/01/15 07:11:32;;;;;;;4.45;3.10;;;6.50;99.90;;;;;;5113443;27;20060;-65
2022/01/15 07:13:58;;;;;;;4.55;2.83;;;6.50;99.90;;;;;;5113217;28;20039;-66
2022/01/15 07:16:24;;;;;;;4.88;3.05;;;6.60;99.90;;;;;;5121419;28;20377;-66
2022/01/15 07:18:49;;;;;;;5.20;3.30;;;6.70;99.90;;;;;;5121772;27;20157;-66
2022/01/15 07:21:15;;;;;;;6.78;3.17;;;6.50;99.90;;;;;;5120811;28;20039;-66
2022/01/15 07:23:41;;;;;;;6.13;2.97;;;6.50;99.90;;;;;;5117286;28;20055;-66
2022/01/15 07:26:07;;;;;;;6.28;3.50;;;6.60;99.90;;;;;;5120435;28;20043;-66
2022/01/15 07:28:32;;;;;;;6.35;3.85;;;6.60;99.90;;;;;;5125504;28;20050;-66
2022/01/15 07:30:59;;;;;;;8.15;3.85;;;6.60;99.90;;;;;;5115424;28;20052;-67
2022/01/15 07:33:24;;;;;;;8.52;5.80;;;6.60;99.90;;;;;;5157550;27;20043;-66
2022/01/15 07:35:51;;;;;;;8.43;4.85;;;6.70;99.90;;;;;;5122158;28;20104;-67
2022/01/15 07:38:19;;;;;;;9.15;5.57;;;6.70;99.90;;;;;;5127167;28;20043;-67
2022/01/15 07:40:47;;;;;;;9.45;5.78;;;6.80;99.90;;;;;;5118550;28;20059;-67
2022/01/15 07:43:12;;;;;;;9.02;4.57;;;6.80;99.90;;;;;;5126718;28;20044;-67
2022/01/15 07:45:38;;;;;;;6.30;4.30;;;6.70;99.90;;;;;;5125375;28;20084;-66
2022/01/15 07:48:04;;;;;;;7.95;4.75;;;6.60;99.90;;;;;;5158688;27;20028;-67
2022/01/15 07:50:29;;;;;;;8.02;5.05;;;6.80;99.90;;;;;;5123308;28;20101;-66
2022/01/15 07:52:57;;;;;;;8.30;4.65;;;6.80;99.90;;;;;;5124241;28;20036;-67
2022/01/15 07:55:24;;;;;;;9.05;5.68;;;6.80;99.90;;;;;;5125058;28;20408;-67
2022/01/15 07:57:50;;;;;;;10.40;5.15;;;6.60;99.90;;;;;;5125417;28;20040;-66
2022/01/15 08:00:17;;;;;;;7.75;5.13;;;6.70;99.90;;;;;;5124678;28;20073;-67
2022/01/15 08:02:44;;;;;;;8.80;5.50;;;6.70;99.90;;;;;;5118265;28;20085;-69
2022/01/15 08:05:11;;;;;;;9.68;5.82;;;6.60;99.90;;;;;;5116483;28;20065;-66
2022/01/15 08:07:40;;;;;;;8.93;5.50;;;6.60;99.90;;;;;;5123088;28;20035;-66
2022/01/15 08:10:07;;;;;;;18.77;13.82;;;6.50;99.90;;;;;;5122706;28;20035;-67
2022/01/15 08:12:33;;;;;;;20.23;13.05;;;6.50;99.90;;;;;;5124104;28;20047;-66
2022/01/15 08:14:59;;;;;;;17.60;11.00;;;6.50;99.90;;;;;;5124198;28;20095;-67
2022/01/15 08:17:25;;;;;;;11.95;7.78;;;6.60;99.90;;;;;;5123128;28;20104;-66
2022/01/15 08:19:51;;;;;;;14.98;9.10;;;6.60;99.90;;;;;;5158014;27;20047;-66
2022/01/15 08:22:17;;;;;;;19.83;14.02;;;6.60;99.90;;;;;;5124712;28;20035;-66
2022/01/15 08:24:42;;;;;;;14.05;7.90;;;6.50;99.90;;;;;;5120923;28;20043;-66
2022/01/15 08:27:08;;;;;;;11.68;6.30;;;6.70;99.90;;;;;;5125824;28;20032;-66
2022/01/15 08:29:34;;;;;;;14.30;7.97;;;6.80;99.90;;;;;;5124697;28;20100;-66
2022/01/15 08:32:00;;;;;;;18.80;10.38;;;6.90;99.90;;;;;;5125420;28;20527;-66
2022/01/15 08:34:26;;;;;;;17.02;9.38;;;6.90;99.90;;;;;;5123746;28;20040;-65
2022/01/15 08:36:52;;;;;;;16.08;9.60;;;6.80;99.90;;;;;;5122943;28;20071;-65
2022/01/15 08:39:17;;;;;;;17.90;10.18;;;6.90;99.90;;;;;;5122631;28;20089;-64
2022/01/15 08:41:48;;;;;;;15.82;9.45;;;7.00;99.90;;;;;;5122983;28;20479;-63
2022/01/15 08:44:20;;;;;;;;;;;7.00;99.90;;;;;;5123882;28;20096;-63
2022/01/15 08:46:46;;;;;;;15.93;9.32;;;7.00;99.90;;;;;;5110830;28;19920;-63
2022/01/15 08:49:12;;;;;;;16.92;9.02;;;6.90;99.90;;;;;;5124982;28;20035;-70
2022/01/15 08:51:38;;;;;;;15.60;9.50;;;6.80;99.90;;;;;;5122807;28;20067;-64
2022/01/15 08:54:04;;;;;;;14.57;8.27;;;6.70;99.90;;;;;;5123169;28;20048;-68
2022/01/15 08:56:30;;;;;;;15.98;8.95;;;6.80;99.90;;;;;;5123393;28;20066;-66
2022/01/15 08:58:55;;;;;;;16.25;9.02;;;6.90;99.90;;;;;;5123026;28;20035;-66
2022/01/15 09:01:21;;;;;;;16.05;9.20;;;6.90;99.90;;;;;;5122506;28;20575;-66
2022/01/15 09:03:47;;;;;;;14.55;8.88;;;7.00;99.90;;;;;;5099121;28;20067;-66
2022/01/15 09:06:12;;;;;;;14.98;8.40;;;6.80;99.90;;;;;;5123717;28;20130;-66
2022/01/15 09:08:39;;;;;;;16.00;8.90;;;6.80;99.90;;;;;;5122809;28;20039;-66
2022/01/15 09:11:06;;;;;;;14.30;7.68;;;6.90;99.90;;;;;;5115928;28;20060;-65
2022/01/15 09:13:31;;;;;;;14.77;8.50;;;6.90;99.90;;;;;;5122729;28;20051;-66
2022/01/15 09:15:57;;;;;;;11.85;6.80;;;7.00;99.90;;;;;;5122935;28;20047;-66
2022/01/15 09:18:23;;;;;;;15.20;8.02;;;7.10;99.90;;;;;;5119191;28;20042;-66
2022/01/15 09:20:49;;;;;;;12.90;7.30;;;7.10;99.90;;;;;;5124279;28;20055;-66
2022/01/15 09:23:16;;;;;;;13.80;7.57;;;7.00;99.90;;;;;;5118693;28;20047;-66
2022/01/15 09:25:41;;;;;;;14.48;8.38;;;7.10;99.90;;;;;;5115470;28;20044;-66
2022/01/15 09:30:52;;;;;;;17.60;9.82;;;7.10;99.90;;;;;;5122791;28;20052;-66
2022/01/15 09:33:18;;;;;;;16.17;9.23;;;7.20;99.90;;;;;;5119902;28;20362;-66
2022/01/15 09:35:44;;;;;;;17.38;10.32;;;7.00;99.90;;;;;;5118063;28;20062;-66
2022/01/15 09:38:10;;;;;;;16.60;9.48;;;6.90;99.90;;;;;;5124225;28;20095;-66
2022/01/15 09:40:39;;;;;;;16.70;9.52;;;6.90;99.90;;;;;;5117612;28;20083;-66
2022/01/15 09:43:04;;;;;;;15.27;8.60;;;7.10;99.90;;;;;;5113002;28;20043;-65
2022/01/15 09:45:34;;;;;;;16.70;9.35;;;7.10;99.90;;;;;;5123591;28;20051;-66
2022/01/15 09:48:01;;;;;;;16.35;9.45;;;7.00;99.90;;;;;;5114256;28;20048;-66
2022/01/15 09:50:30;;;;;;;16.98;8.93;;;7.10;99.90;;;;;;5125481;28;20048;-65
2022/01/15 09:52:57;;;;;;;17.65;9.98;;;7.10;99.90;;;;;;5114594;28;20441;-65
2022/01/15 09:55:24;;;;;;;15.25;9.23;;;7.20;99.90;;;;;;5123423;27;20103;-66
2022/01/15 09:57:50;;;;;;;15.13;8.48;;;7.20;99.90;;;;;;5161060;27;20045;-65
2022/01/15 10:00:18;;;;;;;15.63;10.40;;;7.10;99.90;;;;;;5126455;28;20051;-66
2022/01/15 10:02:49;;;;;;;15.68;8.90;;;7.10;99.90;;;;;;5128725;28;20050;-66
2022/01/15 10:05:16;;;;;;;14.13;9.02;;;7.10;99.90;;;;;;5127688;28;20059;-66
2022/01/15 10:08:03;;;;;;;15.18;8.10;;;7.10;99.90;;;;;;5128777;28;20047;-65
2022/01/15 10:10:31;;;;;;;13.57;8.68;;;7.10;99.90;;;;;;5126362;28;20066;-66
2022/01/15 10:13:15;;;;;;;13.65;8.45;;;7.10;99.90;;;;;;5119212;28;20048;-66
2022/01/15 10:15:43;;;;;;;11.38;7.70;;;7.10;99.90;;;;;;5126298;28;20040;-66
2022/01/15 10:18:33;;;;;;;13.93;8.68;;;7.20;99.90;;;;;;5123654;28;20043;-66
2022/01/15 10:21:21;;;;;;;12.57;9.23;;;7.10;99.90;;;;;;5117378;28;20043;-66
2022/01/15 10:23:49;;;;;;;13.13;8.95;;;7.00;99.90;;;;;;5130229;27;20043;-66
2022/01/15 10:26:20;;;;;;;13.50;8.68;;;7.20;99.90;;;;;;5116622;28;20087;-65
2022/01/15 10:29:04;;;;;;;13.43;10.20;;;7.40;99.90;;;;;;5125854;28;20050;-66
2022/01/15 10:31:32;;;;;;;13.75;9.55;;;7.20;99.90;;;;;;5112948;28;20062;-66
2022/01/15 10:33:59;;;;;;;14.15;10.27;;;7.10;99.90;;;;;;5127316;27;20054;-66
2022/01/15 10:36:31;;;;;;;12.65;8.80;;;7.10;99.90;;;;;;5119977;28;20044;-66
2022/01/15 10:39:16;;;;;;;14.38;10.23;;;7.20;99.90;;;;;;5125288;28;20047;-66
2022/01/15 10:41:43;;;;;;;14.30;9.35;;;7.30;99.90;;;;;;5158473;27;20047;-66
2022/01/15 10:44:28;;;;;;;13.80;9.43;;;7.10;99.90;;;;;;5127656;28;20507;-65
2022/01/15 10:47:26;;;;;;;16.98;11.07;;;7.30;99.90;;;;;;5118730;28;20051;-66
2022/01/15 10:49:52;;;;;;;15.38;10.70;;;7.30;99.90;;;;;;5147036;27;20039;-66
2022/01/15 10:52:19;;;;;;;17.35;10.80;;;7.20;99.90;;;;;;5126642;28;20126;-66
2022/01/15 10:55:08;;;;;;;17.52;11.45;;;7.20;99.90;;;;;;5125126;28;20055;-66
2022/01/15 10:57:47;;;;;;;17.52;11.63;;;7.10;99.90;;;;;;5159948;27;20054;-66
2022/01/15 11:00:16;;;;;;;15.77;10.65;;;7.10;99.90;;;;;;5125087;28;20076;-66
2022/01/15 11:02:51;;;;;;;17.20;11.38;;;7.00;99.90;;;;;;5149655;27;20097;-66
2022/01/15 11:05:27;;;;;;;21.35;12.65;;;7.10;99.90;;;;;;5125146;28;20039;-66
2022/01/15 11:08:03;;;;;;;19.30;12.27;;;7.10;99.90;;;;;;5117658;28;20063;-65
2022/01/15 11:10:35;;;;;;;20.33;12.50;;;7.10;99.90;;;;;;5124834;28;20081;-66
2022/01/15 11:13:04;;;;;;;19.50;12.60;;;6.90;99.90;;;;;;5121547;27;20048;-66
2022/01/15 11:15:30;;;;;;;24.25;13.63;;;6.90;99.90;;;;;;5119702;28;20067;-66
2022/01/15 11:17:56;;;;;;;23.13;14.27;;;7.00;99.90;;;;;;5124618;28;20051;-65
2022/01/15 11:20:28;;;;;;;21.55;12.75;;;6.90;99.90;;;;;;5124463;28;20055;-66
2022/01/15 11:22:54;;;;;;;22.95;14.32;;;7.00;99.90;;;;;;5120063;28;20050;-66
2022/01/15 11:25:20;;;;;;;22.95;14.88;;;7.00;99.90;;;;;;5114543;28;20131;-66
2022/01/15 11:27:45;;;;;;;25.25;14.02;;;6.80;99.90;;;;;;5125748;28;20048;-66
2022/01/15 11:30:12;;;;;;;21.80;13.38;;;6.80;99.90;;;;;;5148646;27;20055;-65
2022/01/15 11:32:41;;;;;;;25.10;14.90;;;6.80;99.90;;;;;;5125850;28;20094;-66
2022/01/15 11:35:08;;;;;;;24.05;13.68;;;7.00;99.90;;;;;;5124967;28;20115;-66
2022/01/15 11:37:56;;;;;;;23.23;15.13;;;7.20;99.90;;;;;;5117854;28;20051;-65
2022/01/15 11:40:37;;;;;;;21.83;12.85;;;7.00;99.90;;;;;;5106453;28;20050;-66
2022/01/15 11:43:24;;;;;;;22.15;13.18;;;7.00;99.90;;;;;;5125641;28;20043;-65
2022/01/15 11:45:54;;;;;;;24.88;14.63;;;6.90;99.90;;;;;;5099728;28;20097;-65
2022/01/15 11:48:28;;;;;;;22.80;13.25;;;7.00;99.90;;;;;;5100934;28;20052;-66
2022/01/15 11:51:13;;;;;;;21.73;12.73;;;6.90;99.90;;;;;;5097218;28;20062;-65
2022/01/15 11:53:53;;;;;;;21.60;13.30;;;7.00;99.90;;;;;;5105753;28;20047;-66
2022/01/15 11:56:22;;;;;;;20.67;13.10;;;7.00;99.90;;;;;;5121549;28;20051;-66
2022/01/15 11:58:48;;;;;;;22.52;14.18;;;7.10;99.90;;;;;;5125294;28;20054;-66
2022/01/15 12:01:39;;;;;;;21.40;13.57;;;7.10;99.90;;;;;;5107271;28;20044;-65
2022/01/15 12:04:31;;;;;;;21.75;14.35;;;7.10;99.90;;;;;;5097097;28;20055;-66
2022/01/15 12:07:16;;;;;;;21.90;14.77;;;7.00;99.90;;;;;;5108051;28;20051;-66
2022/01/15 12:09:44;;;;;;;22.17;13.00;;;7.00;99.90;;;;;;5100956;28;20043;-66
2022/01/15 12:12:20;;;;;;;21.15;13.30;;;6.90;99.90;;;;;;5125831;28;20039;-65
2022/01/15 12:15:00;;;;;;;21.83;13.85;;;7.00;99.90;;;;;;5125992;28;20073;-65
2022/01/15 12:17:31;;;;;;;17.63;11.95;;;7.10;99.90;;;;;;5103057;28;20100;-66
2022/01/15 12:20:00;;;;;;;18.85;12.43;;;7.00;99.90;;;;;;5107428;28;20047;-66
2022/01/15 12:22:45;;;;;;;18.95;12.60;;;6.80;99.90;;;;;;5125864;28;20044;-66
2022/01/15 12:25:15;;;;;;;17.60;11.43;;;6.80;99.90;;;;;;5121666;28;20039;-66
2022/01/15 12:27:42;;;;;;;17.67;11.73;;;6.70;99.90;;;;;;5098400;28;20571;-66
2022/01/15 12:30:11;;;;;;;19.48;12.55;;;6.80;99.90;;;;;;5107603;28;20052;-66
2022/01/15 12:32:40;;;;;;;19.88;13.05;;;6.70;99.90;;;;;;5099628;28;20503;-66
2022/01/15 12:35:15;;;;;;;20.63;12.85;;;6.60;99.90;;;;;;5106808;28;20039;-66
2022/01/15 12:38:03;;;;;;;19.73;13.43;;;6.70;99.90;;;;;;5106802;28;20088;-65
2022/01/15 12:40:43;;;;;;;20.88;13.85;;;6.80;99.90;;;;;;5108392;28;20115;-66
2022/01/15 12:43:17;;;;;;;17.92;12.18;;;6.70;99.90;;;;;;5109674;28;20504;-66
2022/01/15 12:45:46;;;;;;;15.93;10.98;;;6.90;99.90;;;;;;5120562;28;20035;-65
2022/01/15 12:48:16;;;;;;;18.05;11.57;;;6.90;99.90;;;;;;5124383;28;20039;-66
2022/01/15 12:50:49;;;;;;;20.15;12.95;;;7.10;99.90;;;;;;5124681;28;20043;-66
2022/01/15 12:53:15;;;;;;;18.02;12.07;;;7.00;99.90;;;;;;5124479;28;20103;-65
2022/01/15 12:55:42;;;;;;;21.17;13.52;;;7.00;99.90;;;;;;5125420;28;20039;-66
2022/01/15 12:58:10;;;;;;;18.40;12.77;;;6.90;99.90;;;;;;5125696;28;20255;-65
2022/01/15 13:00:38;;;;;;;22.23;13.80;;;6.90;99.90;;;;;;5125564;28;20547;-66
2022/01/15 13:03:09;;;;;;;21.05;14.13;;;6.90;99.90;;;;;;5116873;28;20056;-66
2022/01/15 13:05:37;;;;;;;20.35;13.70;;;6.80;99.90;;;;;;5157480;27;20056;-65
2022/01/15 13:08:11;;;;;;;22.27;14.48;;;6.70;99.90;;;;;;5123233;28;20067;-66
2022/01/15 13:10:56;;;;;;;20.58;13.10;;;6.60;99.90;;;;;;5157509;27;20052;-66
2022/01/15 13:13:38;;;;;;;20.88;14.05;;;6.60;99.90;;;;;;5127689;27;20063;-66
2022/01/15 13:16:21;;;;;;;20.20;14.27;;;6.70;99.90;;;;;;5123325;28;20392;-66
2022/01/15 13:18:49;;;;;;;18.42;12.90;;;6.70;99.90;;;;;;5122760;28;20048;-65